createdAt,value
2023-03-19T00:00:51.086Z,100589.76
2023-03-19T00:03:37.857Z,100604.57
2023-03-19T00:06:06.954Z,100606.73
2023-03-19T00:08:34.689Z,100609.64
2023-03-19T00:11:07.970Z,100615.16
2023-03-19T00:13:35.921Z,100623.42
2023-03-19T00:16:04.254Z,100627.33
2023-03-19T00:18:32.157Z,100632.91
2023-03-19T00:20:59.908Z,100636.47
2023-03-19T00:23:27.713Z,100640.80
2023-03-19T00:25:55.695Z,100640.81
2023-03-19T00:28:23.639Z,100650.33
2023-03-19T00:30:51.476Z,100656.60
2023-03-19T00:33:20.473Z,100657.73
2023-03-19T00:35:48.243Z,100670.15
2023-03-19T00:38:16.311Z,100682.00
2023-03-19T00:40:44.011Z,100684.19
2023-03-19T00:43:12.279Z,100688.89
2023-03-19T00:45:40.024Z,100693.10
2023-03-19T00:48:08.140Z,100696.30
2023-03-19T00:50:37.102Z,100693.83
2023-03-19T00:53:05.139Z,100693.31
2023-03-19T00:55:33.013Z,100698.36
2023-03-19T00:58:01.017Z,100698.48
2023-03-19T01:00:28.780Z,100704.21
2023-03-19T01:02:56.698Z,100706.66
2023-03-19T01:05:24.548Z,100712.11
2023-03-19T01:07:52.362Z,100713.86
2023-03-19T01:10:20.981Z,100714.26
2023-03-19T01:12:49.250Z,100719.52
2023-03-19T01:15:17.932Z,100719.82
2023-03-19T01:17:47.142Z,100721.39
2023-03-19T01:20:18.663Z,100720.69
2023-03-19T01:22:46.593Z,100716.48
2023-03-19T01:25:14.563Z,100718.89
2023-03-19T01:27:42.765Z,100717.14
2023-03-19T01:30:10.871Z,100709.80
2023-03-19T01:32:38.659Z,100709.27
2023-03-19T01:35:06.910Z,100715.11
2023-03-19T01:37:34.581Z,100717.15
2023-03-19T01:40:03.074Z,100718.85
2023-03-19T01:42:30.805Z,100722.88
2023-03-19T01:44:59.194Z,100722.48
2023-03-19T01:47:35.963Z,100735.77
2023-03-19T01:50:04.489Z,100742.95
2023-03-19T01:52:34.299Z,100745.29
2023-03-19T01:55:03.919Z,100745.73
2023-03-19T01:57:32.316Z,100737.50
2023-03-19T02:00:01.703Z,100732.89
2023-03-19T02:02:31.851Z,100737.48
2023-03-19T02:05:06.540Z,100733.34
2023-03-19T02:07:35.136Z,100735.04
2023-03-19T02:10:07.282Z,100734.36
2023-03-19T02:12:35.328Z,100740.34
2023-03-19T02:15:03.301Z,100739.83
2023-03-19T02:17:32.590Z,100748.88
2023-03-19T02:20:07.015Z,100748.79
2023-03-19T02:22:36.849Z,100750.05
2023-03-19T02:25:13.433Z,100753.96
2023-03-19T02:27:41.479Z,100753.79
2023-03-19T02:30:19.796Z,100767.09
2023-03-19T02:32:47.814Z,100767.77
2023-03-19T02:35:15.529Z,100762.05
2023-03-19T02:37:43.330Z,100759.63
2023-03-19T02:40:25.864Z,100749.98
2023-03-19T02:42:54.367Z,100749.75
2023-03-19T02:45:22.935Z,100745.95
2023-03-19T02:47:50.742Z,100751.73
2023-03-19T02:50:18.455Z,100749.33
2023-03-19T02:52:46.405Z,100748.66
2023-03-19T02:55:14.319Z,100746.91
2023-03-19T02:57:42.076Z,100741.67
2023-03-19T03:00:12.180Z,100750.57
2023-03-19T03:02:40.038Z,100757.73
2023-03-19T03:05:09.260Z,100765.83
2023-03-19T03:07:37.623Z,100774.40
2023-03-19T03:10:05.721Z,100772.11
2023-03-19T03:12:33.404Z,100784.80
2023-03-19T03:15:01.214Z,100781.96
2023-03-19T03:17:29.446Z,100777.48
2023-03-19T03:19:57.403Z,100784.17
2023-03-19T03:22:25.204Z,100785.20
2023-03-19T03:24:52.983Z,100788.52
2023-03-19T03:27:20.675Z,100791.84
2023-03-19T03:29:48.855Z,100796.45
2023-03-19T03:32:16.728Z,100799.68
2023-03-19T03:34:46.407Z,100800.27
2023-03-19T03:37:14.181Z,100803.75
2023-03-19T03:39:42.584Z,100811.94
2023-03-19T03:42:10.602Z,100818.80
2023-03-19T03:44:38.229Z,100823.48
2023-03-19T03:47:06.765Z,100832.92
2023-03-19T03:49:34.500Z,100834.29
2023-03-19T03:52:03.043Z,100838.95
2023-03-19T03:54:30.851Z,100837.77
2023-03-19T03:56:58.654Z,100841.91
2023-03-19T03:59:26.432Z,100850.10
2023-03-19T04:01:54.244Z,100849.11
2023-03-19T04:04:24.322Z,100852.35
2023-03-19T04:06:52.998Z,100853.41
2023-03-19T04:09:21.117Z,100864.36
2023-03-19T04:11:51.335Z,100869.23
2023-03-19T04:14:19.236Z,100867.60
2023-03-19T04:16:47.131Z,100864.57
2023-03-19T04:19:15.641Z,100869.69
2023-03-19T04:21:44.937Z,100873.82
2023-03-19T04:24:13.011Z,100873.41
2023-03-19T04:26:40.870Z,100872.98
2023-03-19T04:29:08.818Z,100876.09
2023-03-19T04:31:37.251Z,100885.77
2023-03-19T04:34:05.936Z,100886.48
2023-03-19T04:36:34.124Z,100889.23
2023-03-19T04:39:04.131Z,100896.38
2023-03-19T04:41:32.600Z,100899.88
2023-03-19T04:44:01.159Z,100898.75
2023-03-19T04:46:29.319Z,100900.29
2023-03-19T04:48:57.709Z,100901.54
2023-03-19T04:51:25.463Z,100905.11
2023-03-19T04:53:53.301Z,100904.16
2023-03-19T04:56:21.092Z,100904.73
2023-03-19T04:58:48.952Z,100904.06
2023-03-19T05:01:17.215Z,100908.70
2023-03-19T05:03:45.073Z,100907.05
2023-03-19T05:06:12.856Z,100912.29
2023-03-19T05:08:40.793Z,100912.88
2023-03-19T05:11:08.648Z,100918.72
2023-03-19T05:13:36.472Z,100921.24
2023-03-19T05:16:04.469Z,100925.90
2023-03-19T05:18:33.559Z,100933.15
2023-03-19T05:21:01.233Z,100932.23
2023-03-19T05:23:30.327Z,100933.69
2023-03-19T05:26:00.061Z,100935.85
2023-03-19T05:28:33.704Z,100936.08
2023-03-19T05:31:01.504Z,100940.02
2023-03-19T05:33:29.466Z,100939.20
2023-03-19T05:35:58.420Z,100944.79
2023-03-19T05:38:26.627Z,100947.48
2023-03-19T05:40:54.325Z,100951.38
2023-03-19T05:43:22.408Z,100954.34
2023-03-19T05:45:51.188Z,100961.83
2023-03-19T05:48:18.990Z,100962.90
2023-03-19T05:50:47.213Z,100970.00
2023-03-19T05:53:15.088Z,100976.02
2023-03-19T05:55:43.114Z,100977.95
2023-03-19T05:58:11.256Z,100979.97
2023-03-19T06:00:39.082Z,100976.89
2023-03-19T06:03:07.489Z,100977.69
2023-03-19T06:05:35.401Z,100977.17
2023-03-19T06:08:03.220Z,100980.10
2023-03-19T06:10:31.417Z,100987.70
2023-03-19T06:12:59.229Z,100987.27
2023-03-19T06:15:27.951Z,100993.77
2023-03-19T06:17:55.709Z,100995.31
2023-03-19T06:20:27.111Z,100999.43
2023-03-19T06:22:55.309Z,101001.27
2023-03-19T06:25:23.074Z,100998.86
2023-03-19T06:27:50.952Z,101002.30
2023-03-19T06:30:18.728Z,101004.50
2023-03-19T06:32:47.100Z,101007.70
2023-03-19T06:35:14.967Z,101012.34
2023-03-19T06:37:42.760Z,101017.71
2023-03-19T06:40:10.883Z,101022.29
2023-03-19T06:42:38.772Z,101029.61
2023-03-19T06:45:07.744Z,101029.70
2023-03-19T06:47:35.561Z,101031.80
2023-03-19T06:50:04.514Z,101031.66
2023-03-19T06:52:32.174Z,101033.92
2023-03-19T06:55:00.121Z,101036.06
2023-03-19T06:57:27.937Z,101039.02
2023-03-19T06:59:55.846Z,101045.65
2023-03-19T07:02:23.552Z,101045.38
2023-03-19T07:04:52.389Z,101054.05
2023-03-19T07:07:20.355Z,101056.61
2023-03-19T07:09:48.137Z,101061.95
2023-03-19T07:12:16.022Z,101068.77
2023-03-19T07:14:43.823Z,101068.05
2023-03-19T07:17:11.690Z,101072.95
2023-03-19T07:19:39.482Z,101073.36
2023-03-19T07:22:07.240Z,101081.55
2023-03-19T07:24:34.926Z,101083.98
2023-03-19T07:27:03.311Z,101089.20
2023-03-19T07:29:31.281Z,101098.75
2023-03-19T07:31:59.269Z,101099.38
2023-03-19T07:34:27.465Z,101103.74
2023-03-19T07:36:55.688Z,101107.58
2023-03-19T07:39:23.496Z,101104.81
2023-03-19T07:41:51.279Z,101109.08
2023-03-19T07:44:19.185Z,101108.41
2023-03-19T07:46:49.001Z,101109.17
2023-03-19T07:49:17.317Z,101108.39
2023-03-19T07:51:45.083Z,101117.28
2023-03-19T07:54:13.041Z,101120.38
2023-03-19T07:56:41.220Z,101123.31
2023-03-19T07:59:09.136Z,101125.73
2023-03-19T08:01:37.146Z,101127.09
2023-03-19T08:04:05.270Z,101132.67
2023-03-19T08:06:33.677Z,101127.39
2023-03-19T08:09:01.581Z,101125.34
2023-03-19T08:11:30.097Z,101126.08
2023-03-19T08:13:59.671Z,101128.87
2023-03-19T08:16:27.787Z,101132.85
2023-03-19T08:18:55.621Z,101134.46
2023-03-19T08:21:23.381Z,101136.96
2023-03-19T08:23:51.240Z,101140.77
2023-03-19T08:26:19.675Z,101140.96
2023-03-19T08:28:47.548Z,101145.92
2023-03-19T08:31:15.443Z,101146.37
2023-03-19T08:33:43.227Z,101149.23
2023-03-19T08:36:12.684Z,101152.19
2023-03-19T08:38:40.975Z,101152.41
2023-03-19T08:41:09.165Z,101155.88
2023-03-19T08:43:37.481Z,101158.96
2023-03-19T08:46:06.031Z,101164.45
2023-03-19T08:48:34.118Z,101162.70
2023-03-19T08:51:02.744Z,101166.33
2023-03-19T08:53:31.273Z,101172.00
2023-03-19T08:56:00.669Z,101180.57
2023-03-19T08:58:28.537Z,101182.21
2023-03-19T09:01:06.248Z,101189.59
2023-03-19T09:03:34.666Z,101183.48
2023-03-19T09:06:03.045Z,101181.44
2023-03-19T09:08:31.276Z,101182.64
2023-03-19T09:10:59.186Z,101175.56
2023-03-19T09:13:27.280Z,101176.17
2023-03-19T09:15:56.500Z,101180.53
2023-03-19T09:18:25.586Z,101190.23
2023-03-19T09:20:54.266Z,101192.83
2023-03-19T09:23:22.673Z,101199.76
2023-03-19T09:25:51.280Z,101199.66
2023-03-19T09:28:19.434Z,101201.08
2023-03-19T09:30:48.017Z,101202.39
2023-03-19T09:33:16.647Z,101205.38
2023-03-19T09:35:49.099Z,101210.06
2023-03-19T09:38:16.793Z,101208.86
2023-03-19T09:40:47.034Z,101213.15
2023-03-19T09:43:26.391Z,101223.98
2023-03-19T09:45:54.455Z,101221.45
2023-03-19T09:48:35.988Z,101228.45
2023-03-19T09:51:06.957Z,101229.50
2023-03-19T09:53:35.675Z,101233.70
2023-03-19T09:56:05.712Z,101238.89
2023-03-19T09:58:35.083Z,101236.48
2023-03-19T10:01:04.153Z,101237.78
2023-03-19T10:03:50.654Z,101242.66
2023-03-19T10:06:18.330Z,101242.54
2023-03-19T10:09:04.723Z,101245.66
2023-03-19T10:11:38.759Z,101245.81
2023-03-19T10:14:23.573Z,101250.25
2023-03-19T10:16:53.141Z,101253.85
2023-03-19T10:19:23.962Z,101254.13
2023-03-19T10:22:12.744Z,101249.92
2023-03-19T10:24:43.222Z,101245.87
2023-03-19T10:27:14.100Z,101244.03
2023-03-19T10:29:42.157Z,101253.79
2023-03-19T10:32:19.304Z,101254.05
2023-03-19T10:34:53.954Z,101252.47
2023-03-19T10:37:23.353Z,101249.71
2023-03-19T10:39:52.867Z,101250.10
2023-03-19T10:42:20.745Z,101254.84
2023-03-19T10:44:56.844Z,101261.95
2023-03-19T10:47:27.816Z,101261.02
2023-03-19T10:49:56.768Z,101264.50
2023-03-19T10:52:27.447Z,101265.67
2023-03-19T10:54:56.931Z,101265.98
2023-03-19T10:57:29.076Z,101260.79
2023-03-19T11:00:04.500Z,101263.41
2023-03-19T11:02:32.511Z,101258.70
2023-03-19T11:05:23.441Z,101256.42
2023-03-19T11:08:02.060Z,101255.58
2023-03-19T11:10:31.729Z,101257.27
2023-03-19T11:13:07.419Z,101257.83
2023-03-19T11:15:37.429Z,101258.46
2023-03-19T11:18:08.427Z,101266.02
2023-03-19T11:20:38.036Z,101263.85
2023-03-19T11:23:20.324Z,101260.22
2023-03-19T11:25:48.213Z,101265.67
2023-03-19T11:28:19.801Z,101264.98
2023-03-19T11:31:08.468Z,101267.22
2023-03-19T11:34:06.376Z,101269.14
2023-03-19T11:36:41.455Z,101268.86
2023-03-19T11:39:15.715Z,101273.35
2023-03-19T11:41:54.037Z,101274.74
2023-03-19T11:44:48.166Z,101267.81
2023-03-19T11:47:38.564Z,101270.01
2023-03-19T11:50:19.492Z,101274.18
2023-03-19T11:52:48.008Z,101275.46
2023-03-19T11:55:37.019Z,101282.70
2023-03-19T11:58:16.290Z,101284.90
2023-03-19T12:00:48.785Z,101280.31
2023-03-19T12:03:28.646Z,101280.98
2023-03-19T12:06:08.570Z,101285.23
2023-03-19T12:08:45.453Z,101286.54
2023-03-19T12:11:24.974Z,101291.89
2023-03-19T12:13:52.711Z,101294.86
2023-03-19T12:16:26.394Z,101291.61
2023-03-19T12:18:54.171Z,101284.94
2023-03-19T12:21:37.649Z,101291.08
2023-03-19T12:24:16.562Z,101294.07
2023-03-19T12:26:47.530Z,101287.73
2023-03-19T12:29:24.492Z,101288.02
2023-03-19T12:32:05.510Z,101283.44
2023-03-19T12:34:33.509Z,101278.69
2023-03-19T12:37:07.124Z,101285.16
2023-03-19T12:39:37.513Z,101283.95
2023-03-19T12:42:06.391Z,101287.07
2023-03-19T12:44:39.189Z,101285.50
2023-03-19T12:47:12.960Z,101290.26
2023-03-19T12:49:48.398Z,101290.29
2023-03-19T12:52:29.006Z,101288.98
2023-03-19T12:55:17.034Z,101283.61
2023-03-19T12:57:49.802Z,101284.38
2023-03-19T13:00:39.051Z,101288.92
2023-03-19T13:03:25.658Z,101284.30
2023-03-19T13:06:08.673Z,101282.27
2023-03-19T13:08:45.083Z,101279.30
2023-03-19T13:11:16.042Z,101281.30
2023-03-19T13:13:59.038Z,101276.69
2023-03-19T13:16:32.671Z,101272.34
2023-03-19T13:19:26.598Z,101271.13
2023-03-19T13:21:57.062Z,101268.30
2023-03-19T13:24:38.783Z,101266.64
2023-03-19T13:27:07.540Z,101269.17
2023-03-19T13:29:36.942Z,101262.30
2023-03-19T13:32:06.884Z,101262.69
2023-03-19T13:34:36.609Z,101264.94
2023-03-19T13:37:10.673Z,101265.80
2023-03-19T13:39:39.045Z,101270.08
2023-03-19T13:42:10.189Z,101271.66
2023-03-19T13:44:43.015Z,101270.92
2023-03-19T13:47:25.795Z,101269.91
2023-03-19T13:50:15.938Z,101268.10
2023-03-19T13:52:43.835Z,101267.55
2023-03-19T13:55:32.253Z,101273.29
2023-03-19T13:58:12.598Z,101276.98
2023-03-19T14:00:46.643Z,101276.02
2023-03-19T14:03:20.217Z,101279.35
2023-03-19T14:05:49.959Z,101283.49
2023-03-19T14:08:22.772Z,101282.41
2023-03-19T14:10:52.971Z,101279.85
2023-03-19T14:13:41.228Z,101282.88
2023-03-19T14:16:17.268Z,101285.10
2023-03-19T14:18:45.318Z,101283.84
2023-03-19T14:21:21.852Z,101281.14
2023-03-19T14:23:54.987Z,101289.74
2023-03-19T14:26:29.398Z,101291.91
2023-03-19T14:29:03.462Z,101290.80
2023-03-19T14:31:43.310Z,101291.47
2023-03-19T14:34:11.337Z,101291.64
2023-03-19T14:36:46.476Z,101295.98
2023-03-19T14:39:25.116Z,101300.20
2023-03-19T14:41:59.894Z,101308.94
2023-03-19T14:44:37.536Z,101305.63
2023-03-19T14:47:17.108Z,101303.77
2023-03-19T14:49:44.827Z,101313.48
2023-03-19T14:52:31.407Z,101321.58
2023-03-19T14:55:13.346Z,101322.89
2023-03-19T14:57:41.350Z,101323.70
2023-03-19T15:00:14.361Z,101330.66
2023-03-19T15:02:43.844Z,101333.52
2023-03-19T15:05:21.412Z,101333.45
2023-03-19T15:07:50.715Z,101331.77
2023-03-19T15:10:20.036Z,101338.94
2023-03-19T15:12:54.376Z,101337.28
2023-03-19T15:15:22.366Z,101338.23
2023-03-19T15:18:10.683Z,101334.09
2023-03-19T15:20:50.992Z,101330.41
2023-03-19T15:23:33.214Z,101325.30
2023-03-19T15:26:04.007Z,101318.52
2023-03-19T15:28:37.552Z,101322.02
2023-03-19T15:31:28.671Z,101321.65
2023-03-19T15:33:54.974Z,101315.13
2023-03-19T15:36:27.259Z,101322.31
2023-03-19T15:38:57.473Z,101326.44
2023-03-19T15:41:26.764Z,101320.60
2023-03-19T15:43:55.254Z,101317.23
2023-03-19T15:46:25.278Z,101321.77
2023-03-19T15:48:58.754Z,101316.51
2023-03-19T15:51:53.444Z,101307.73
2023-03-19T15:54:22.494Z,101305.90
2023-03-19T15:56:51.733Z,101310.26
2023-03-19T15:59:21.858Z,101313.71
2023-03-19T16:01:51.096Z,101312.75
2023-03-19T16:04:24.214Z,101317.52
2023-03-19T16:06:52.442Z,101321.73
2023-03-19T16:09:24.365Z,101317.73
2023-03-19T16:11:53.089Z,101325.75
2023-03-19T16:14:31.181Z,101328.05
2023-03-19T16:17:00.929Z,101339.66
2023-03-19T16:19:33.968Z,101341.46
2023-03-19T16:22:22.814Z,101344.15
2023-03-19T16:24:51.948Z,101343.23
2023-03-19T16:27:21.771Z,101348.87
2023-03-19T16:29:57.250Z,101354.43
2023-03-19T16:32:27.168Z,101357.39
2023-03-19T16:35:04.288Z,101360.17
2023-03-19T16:37:35.500Z,101365.55
2023-03-19T16:40:26.518Z,101366.29
2023-03-19T16:42:56.264Z,101370.77
2023-03-19T16:45:31.121Z,101369.39
2023-03-19T16:48:03.691Z,101359.46
2023-03-19T16:50:40.042Z,101369.98
2023-03-19T16:53:16.044Z,101391.08
2023-03-19T16:55:44.063Z,101393.87
2023-03-19T16:58:16.540Z,101389.52
2023-03-19T17:00:44.925Z,101389.02
2023-03-19T17:03:20.840Z,101389.91
2023-03-19T17:05:48.998Z,101395.18
2023-03-19T17:08:18.781Z,101397.52
2023-03-19T17:10:49.409Z,101393.34
2023-03-19T17:13:28.777Z,101390.92
2023-03-19T17:16:02.570Z,101395.77
2023-03-19T17:18:38.757Z,101399.04
2023-03-19T17:21:09.338Z,101401.48
2023-03-19T17:23:38.110Z,101398.39
2023-03-19T17:26:16.831Z,101397.77
2023-03-19T17:28:44.864Z,101399.99
2023-03-19T17:31:20.945Z,101405.09
2023-03-19T17:33:49.314Z,101406.34
2023-03-19T17:36:17.159Z,101407.62
2023-03-19T17:38:44.903Z,101414.65
2023-03-19T17:41:14.031Z,101412.80
2023-03-19T17:43:44.294Z,101413.77
2023-03-19T17:46:18.156Z,101411.75
2023-03-19T17:48:47.321Z,101412.60
2023-03-19T17:51:15.878Z,101412.20
2023-03-19T17:53:46.311Z,101417.40
2023-03-19T17:56:16.692Z,101418.19
2023-03-19T17:58:45.067Z,101422.06
2023-03-19T18:01:18.383Z,101418.27
2023-03-19T18:03:46.730Z,101418.73
2023-03-19T18:06:16.728Z,101417.66
2023-03-19T18:08:44.970Z,101416.25
2023-03-19T18:11:13.422Z,101409.97
2023-03-19T18:13:44.622Z,101412.79
2023-03-19T18:16:15.385Z,101413.20
2023-03-19T18:18:43.150Z,101413.67
2023-03-19T18:21:13.722Z,101412.48
2023-03-19T18:23:42.767Z,101419.10
2023-03-19T18:26:12.086Z,101414.52
2023-03-19T18:28:39.941Z,101410.65
2023-03-19T18:31:16.872Z,101407.13
2023-03-19T18:33:46.986Z,101409.45
2023-03-19T18:36:21.389Z,101404.79
2023-03-19T18:38:50.672Z,101403.60
2023-03-19T18:41:19.731Z,101401.27
2023-03-19T18:43:47.649Z,101402.56
2023-03-19T18:46:19.686Z,101400.23
2023-03-19T18:48:47.680Z,101397.26
2023-03-19T18:51:15.543Z,101393.35
2023-03-19T18:53:43.568Z,101394.30
2023-03-19T18:56:18.243Z,101390.45
2023-03-19T18:58:46.224Z,101382.66
2023-03-19T19:01:17.599Z,101385.13
2023-03-19T19:03:46.414Z,101379.23
2023-03-19T19:06:20.430Z,101376.52
2023-03-19T19:08:49.282Z,101379.44
2023-03-19T19:11:17.645Z,101385.19
2023-03-19T19:13:55.671Z,101392.61
2023-03-19T19:16:27.175Z,101391.77
2023-03-19T19:18:55.336Z,101387.65
2023-03-19T19:21:23.255Z,101393.82
2023-03-19T19:23:51.187Z,101402.41
2023-03-19T19:26:23.963Z,101407.94
2023-03-19T19:28:53.028Z,101414.68
2023-03-19T19:31:28.457Z,101418.92
2023-03-19T19:33:57.100Z,101419.89
2023-03-19T19:36:25.351Z,101417.33
2023-03-19T19:38:53.199Z,101420.36
2023-03-19T19:41:24.453Z,101416.55
2023-03-19T19:43:55.662Z,101417.48
2023-03-19T19:46:23.899Z,101423.95
2023-03-19T19:48:51.850Z,101424.33
2023-03-19T19:51:21.427Z,101419.91
2023-03-19T19:53:49.782Z,101418.69
2023-03-19T19:56:19.200Z,101419.28
2023-03-19T19:58:47.856Z,101421.45
2023-03-19T20:01:17.098Z,101423.95
2023-03-19T20:03:47.320Z,101428.92
2023-03-19T20:06:16.513Z,101434.19
2023-03-19T20:08:44.366Z,101437.67
2023-03-19T20:11:17.886Z,101435.62
2023-03-19T20:13:51.512Z,101432.10
2023-03-19T20:16:19.884Z,101431.23
2023-03-19T20:18:47.824Z,101432.02
2023-03-19T20:21:16.067Z,101429.83
2023-03-19T20:23:44.722Z,101431.07
2023-03-19T20:26:13.752Z,101427.45
2023-03-19T20:28:41.930Z,101425.77
2023-03-19T20:31:16.435Z,101418.36
2023-03-19T20:33:44.415Z,101408.52
2023-03-19T20:36:15.744Z,101402.05
2023-03-19T20:38:43.999Z,101396.63
2023-03-19T20:41:18.502Z,101394.94
2023-03-19T20:43:47.134Z,101405.02
2023-03-19T20:46:15.937Z,101403.04
2023-03-19T20:48:43.850Z,101405.08
2023-03-19T20:51:17.426Z,101405.58
2023-03-19T20:53:45.951Z,101419.18
2023-03-19T20:56:15.940Z,101419.62
2023-03-19T20:58:44.423Z,101414.48
2023-03-19T21:01:13.378Z,101419.29
2023-03-19T21:03:41.495Z,101417.70
2023-03-19T21:06:15.624Z,101409.79
2023-03-19T21:08:44.745Z,101421.16
2023-03-19T21:11:19.697Z,101429.23
2023-03-19T21:13:48.398Z,101419.82
2023-03-19T21:16:20.755Z,101415.09
2023-03-19T21:18:49.393Z,101422.27
2023-03-19T21:21:18.645Z,101435.25
2023-03-19T21:24:06.810Z,101442.52
2023-03-19T21:26:39.252Z,101439.75
2023-03-19T21:29:11.022Z,101439.69
2023-03-19T21:31:38.876Z,101435.82
2023-03-19T21:34:07.021Z,101434.46
2023-03-19T21:36:34.708Z,101425.95
2023-03-19T21:39:02.532Z,101432.34
2023-03-19T21:41:36.013Z,101437.72
2023-03-19T21:44:05.705Z,101426.42
2023-03-19T21:46:34.006Z,101419.84
2023-03-19T21:49:01.861Z,101421.14
2023-03-19T21:51:29.711Z,101424.04
2023-03-19T21:53:58.518Z,101431.92
2023-03-19T21:56:46.523Z,101435.64
2023-03-19T21:59:21.484Z,101434.20
2023-03-19T22:01:49.409Z,101435.26
2023-03-19T22:04:19.288Z,101437.02
2023-03-19T22:06:47.220Z,101430.41
2023-03-19T22:09:14.995Z,101431.39
2023-03-19T22:11:43.225Z,101436.19
2023-03-19T22:14:27.127Z,101440.52
2023-03-19T22:16:55.655Z,101432.11
2023-03-19T22:19:23.927Z,101432.86
2023-03-19T22:21:52.030Z,101432.81
2023-03-19T22:24:20.117Z,101431.20
2023-03-19T22:26:51.024Z,101420.79
2023-03-19T22:29:20.858Z,101416.20
2023-03-19T22:31:49.450Z,101413.52
2023-03-19T22:34:18.558Z,101418.10
2023-03-19T22:36:46.366Z,101426.16
2023-03-19T22:39:14.341Z,101426.77
2023-03-19T22:41:45.514Z,101427.39
2023-03-19T22:44:19.418Z,101425.20
2023-03-19T22:46:47.140Z,101421.79
2023-03-19T22:49:16.638Z,101416.02
2023-03-19T22:51:47.465Z,101415.21
2023-03-19T22:54:15.726Z,101416.25
2023-03-19T22:56:43.577Z,101418.48
2023-03-19T22:59:11.561Z,101422.08
2023-03-19T23:01:41.715Z,101421.80
2023-03-19T23:04:31.711Z,101416.46
2023-03-19T23:07:01.629Z,101424.29
2023-03-19T23:09:29.660Z,101426.58
2023-03-19T23:11:59.532Z,101415.51
2023-03-19T23:14:30.904Z,101400.86
2023-03-19T23:17:06.566Z,101389.92
2023-03-19T23:19:35.371Z,101387.36
2023-03-19T23:22:05.113Z,101385.53
2023-03-19T23:24:33.830Z,101382.05
2023-03-19T23:27:02.422Z,101382.44
2023-03-19T23:29:32.606Z,101376.40
2023-03-19T23:32:00.572Z,101372.33
2023-03-19T23:34:28.816Z,101368.67
2023-03-19T23:36:58.151Z,101377.38
2023-03-19T23:39:26.441Z,101380.52
2023-03-19T23:41:55.803Z,101382.34
2023-03-19T23:44:23.756Z,101381.54
2023-03-19T23:46:51.805Z,101380.77
2023-03-19T23:49:29.776Z,101377.45
2023-03-19T23:51:58.000Z,101375.23
2023-03-19T23:54:25.718Z,101385.19
2023-03-19T23:56:53.631Z,101383.45
2023-03-19T23:59:21.632Z,101389.20
